sensor_id;sensor_type;location;lat;lon;timestamp;P1;durP1;ratioP1;P2;durP2;ratioP2
70303;SDS011;57712;48.752;11.348;2024-03-02T00:00:38;36.03;;;15.68;;
70303;SDS011;57712;48.752;11.348;2024-03-02T00:03:05;30.77;;;14.98;;
70303;SDS011;57712;48.752;11.348;2024-03-02T00:05:34;31.33;;;14.98;;
70303;SDS011;57712;48.752;11.348;2024-03-02T00:08:01;33.67;;;15.10;;
70303;SDS011;57712;48.752;11.348;2024-03-02T00:10:35;36.07;;;16.17;;
70303;SDS011;57712;48.752;11.348;2024-03-02T00:13:06;33.25;;;15.88;;
70303;SDS011;57712;48.752;11.348;2024-03-02T00:15:41;37.08;;;16.90;;
70303;SDS011;57712;48.752;11.348;2024-03-02T00:18:16;37.53;;;16.83;;
70303;SDS011;57712;48.752;11.348;2024-03-02T00:20:45;35.30;;;16.38;;
70303;SDS011;57712;48.752;11.348;2024-03-02T00:23:15;33.30;;;16.23;;
70303;SDS011;57712;48.752;11.348;2024-03-02T00:25:44;35.88;;;17.08;;
70303;SDS011;57712;48.752;11.348;2024-03-02T00:30:56;34.22;;;16.52;;
70303;SDS011;57712;48.752;11.348;2024-03-02T00:33:29;36.83;;;17.13;;
70303;SDS011;57712;48.752;11.348;2024-03-02T00:36:00;38.10;;;18.60;;
70303;SDS011;57712;48.752;11.348;2024-03-02T00:38:32;38.42;;;17.63;;
70303;SDS011;57712;48.752;11.348;2024-03-02T00:41:05;40.70;;;17.65;;
70303;SDS011;57712;48.752;11.348;2024-03-02T00:46:20;38.13;;;16.90;;
70303;SDS011;57712;48.752;11.348;2024-03-02T00:48:50;40.80;;;18.30;;
70303;SDS011;57712;48.752;11.348;2024-03-02T00:51:21;41.78;;;19.38;;
70303;SDS011;57712;48.752;11.348;2024-03-02T00:53:50;41.65;;;18.45;;
70303;SDS011;57712;48.752;11.348;2024-03-02T00:56:19;41.92;;;18.85;;
70303;SDS011;57712;48.752;11.348;2024-03-02T00:58:45;42.10;;;19.20;;
70303;SDS011;57712;48.752;11.348;2024-03-02T01:01:12;39.50;;;17.60;;
70303;SDS011;57712;48.752;11.348;2024-03-02T01:03:40;44.33;;;18.58;;
70303;SDS011;57712;48.752;11.348;2024-03-02T01:06:08;43.17;;;20.20;;
70303;SDS011;57712;48.752;11.348;2024-03-02T01:08:38;41.67;;;18.67;;
70303;SDS011;57712;48.752;11.348;2024-03-02T01:11:05;43.97;;;19.95;;
70303;SDS011;57712;48.752;11.348;2024-03-02T01:13:32;41.53;;;18.53;;
70303;SDS011;57712;48.752;11.348;2024-03-02T01:15:59;43.65;;;19.38;;
70303;SDS011;57712;48.752;11.348;2024-03-02T01:18:28;45.72;;;20.63;;
70303;SDS011;57712;48.752;11.348;2024-03-02T01:20:55;42.90;;;18.50;;
70303;SDS011;57712;48.752;11.348;2024-03-02T01:23:22;44.42;;;19.48;;
70303;SDS011;57712;48.752;11.348;2024-03-02T01:25:50;48.33;;;20.70;;
70303;SDS011;57712;48.752;11.348;2024-03-02T01:28:18;48.55;;;21.73;;
70303;SDS011;57712;48.752;11.348;2024-03-02T01:30:48;47.08;;;21.35;;
70303;SDS011;57712;48.752;11.348;2024-03-02T01:33:19;50.88;;;20.17;;
70303;SDS011;57712;48.752;11.348;2024-03-02T01:35:46;56.28;;;21.17;;
70303;SDS011;57712;48.752;11.348;2024-03-02T01:38:13;48.70;;;21.13;;
70303;SDS011;57712;48.752;11.348;2024-03-02T01:40:40;54.03;;;21.88;;
70303;SDS011;57712;48.752;11.348;2024-03-02T01:43:08;44.00;;;20.38;;
70303;SDS011;57712;48.752;11.348;2024-03-02T01:45:35;48.33;;;20.92;;
70303;SDS011;57712;48.752;11.348;2024-03-02T01:48:05;49.03;;;20.80;;
70303;SDS011;57712;48.752;11.348;2024-03-02T01:50:34;49.93;;;21.10;;
70303;SDS011;57712;48.752;11.348;2024-03-02T01:53:01;45.97;;;20.63;;
70303;SDS011;57712;48.752;11.348;2024-03-02T01:55:29;45.47;;;20.13;;
70303;SDS011;57712;48.752;11.348;2024-03-02T01:57:57;41.15;;;19.20;;
70303;SDS011;57712;48.752;11.348;2024-03-02T02:00:25;41.40;;;20.25;;
70303;SDS011;57712;48.752;11.348;2024-03-02T02:02:53;42.23;;;18.90;;
70303;SDS011;57712;48.752;11.348;2024-03-02T02:05:21;41.75;;;18.70;;
70303;SDS011;57712;48.752;11.348;2024-03-02T02:07:48;40.22;;;19.77;;
70303;SDS011;57712;48.752;11.348;2024-03-02T02:10:15;40.90;;;18.95;;
70303;SDS011;57712;48.752;11.348;2024-03-02T02:12:42;41.13;;;18.58;;
70303;SDS011;57712;48.752;11.348;2024-03-02T02:15:24;40.07;;;18.33;;
70303;SDS011;57712;48.752;11.348;2024-03-02T02:17:53;39.83;;;18.45;;
70303;SDS011;57712;48.752;11.348;2024-03-02T02:20:20;39.67;;;18.52;;
70303;SDS011;57712;48.752;11.348;2024-03-02T02:23:00;40.05;;;17.70;;
70303;SDS011;57712;48.752;11.348;2024-03-02T02:25:28;39.95;;;18.60;;
70303;SDS011;57712;48.752;11.348;2024-03-02T02:27:56;38.47;;;18.97;;
70303;SDS011;57712;48.752;11.348;2024-03-02T02:30:28;38.00;;;17.58;;
70303;SDS011;57712;48.752;11.348;2024-03-02T02:32:56;39.45;;;18.83;;
70303;SDS011;57712;48.752;11.348;2024-03-02T02:35:23;38.15;;;18.38;;
70303;SDS011;57712;48.752;11.348;2024-03-02T02:37:54;36.65;;;18.00;;
70303;SDS011;57712;48.752;11.348;2024-03-02T02:40:21;37.87;;;18.93;;
70303;SDS011;57712;48.752;11.348;2024-03-02T02:42:48;36.15;;;17.48;;
70303;SDS011;57712;48.752;11.348;2024-03-02T02:45:17;35.95;;;17.48;;
70303;SDS011;57712;48.752;11.348;2024-03-02T02:47:44;36.33;;;17.25;;
70303;SDS011;57712;48.752;11.348;2024-03-02T02:50:11;38.67;;;17.58;;
70303;SDS011;57712;48.752;11.348;2024-03-02T02:52:39;35.57;;;17.57;;
70303;SDS011;57712;48.752;11.348;2024-03-02T02:55:08;37.00;;;17.20;;
70303;SDS011;57712;48.752;11.348;2024-03-02T02:57:36;34.60;;;17.10;;
70303;SDS011;57712;48.752;11.348;2024-03-02T03:00:12;37.95;;;17.30;;
70303;SDS011;57712;48.752;11.348;2024-03-02T03:02:43;34.20;;;16.80;;
70303;SDS011;57712;48.752;11.348;2024-03-02T03:05:11;33.83;;;15.93;;
70303;SDS011;57712;48.752;11.348;2024-03-02T03:07:39;34.67;;;16.65;;
70303;SDS011;57712;48.752;11.348;2024-03-02T03:10:09;35.78;;;16.95;;
70303;SDS011;57712;48.752;11.348;2024-03-02T03:12:36;33.08;;;16.90;;
70303;SDS011;57712;48.752;11.348;2024-03-02T03:15:03;31.63;;;16.00;;
70303;SDS011;57712;48.752;11.348;2024-03-02T03:17:35;31.17;;;15.27;;
70303;SDS011;57712;48.752;11.348;2024-03-02T03:20:02;33.10;;;15.85;;
70303;SDS011;57712;48.752;11.348;2024-03-02T03:22:30;31.90;;;16.73;;
70303;SDS011;57712;48.752;11.348;2024-03-02T03:25:01;32.88;;;16.05;;
70303;SDS011;57712;48.752;11.348;2024-03-02T03:27:30;36.63;;;16.58;;
70303;SDS011;57712;48.752;11.348;2024-03-02T03:29:57;30.70;;;15.63;;
70303;SDS011;57712;48.752;11.348;2024-03-02T03:32:23;33.33;;;15.98;;
70303;SDS011;57712;48.752;11.348;2024-03-02T03:34:51;31.40;;;15.95;;
70303;SDS011;57712;48.752;11.348;2024-03-02T03:37:17;32.50;;;16.92;;
70303;SDS011;57712;48.752;11.348;2024-03-02T03:39:44;33.45;;;16.23;;
70303;SDS011;57712;48.752;11.348;2024-03-02T03:42:11;33.10;;;16.20;;
70303;SDS011;57712;48.752;11.348;2024-03-02T03:44:37;32.28;;;15.93;;
70303;SDS011;57712;48.752;11.348;2024-03-02T03:47:05;32.92;;;17.15;;
70303;SDS011;57712;48.752;11.348;2024-03-02T03:49:33;32.00;;;16.55;;
70303;SDS011;57712;48.752;11.348;2024-03-02T03:51:59;33.78;;;16.63;;
70303;SDS011;57712;48.752;11.348;2024-03-02T03:54:26;34.23;;;16.80;;
70303;SDS011;57712;48.752;11.348;2024-03-02T03:56:53;34.42;;;16.55;;
70303;SDS011;57712;48.752;11.348;2024-03-02T03:59:20;36.13;;;16.00;;
70303;SDS011;57712;48.752;11.348;2024-03-02T04:01:47;39.97;;;16.67;;
70303;SDS011;57712;48.752;11.348;2024-03-02T04:04:13;33.10;;;16.08;;
70303;SDS011;57712;48.752;11.348;2024-03-02T04:06:40;33.70;;;15.87;;
70303;SDS011;57712;48.752;11.348;2024-03-02T04:09:07;31.80;;;16.20;;
70303;SDS011;57712;48.752;11.348;2024-03-02T04:11:34;29.02;;;14.95;;
70303;SDS011;57712;48.752;11.348;2024-03-02T04:14:01;32.75;;;14.95;;
70303;SDS011;57712;48.752;11.348;2024-03-02T04:16:27;31.48;;;15.77;;
70303;SDS011;57712;48.752;11.348;2024-03-02T04:18:55;32.30;;;15.73;;
70303;SDS011;57712;48.752;11.348;2024-03-02T04:21:21;31.50;;;15.52;;
70303;SDS011;57712;48.752;11.348;2024-03-02T04:23:48;30.02;;;15.13;;
70303;SDS011;57712;48.752;11.348;2024-03-02T04:26:15;30.40;;;15.93;;
70303;SDS011;57712;48.752;11.348;2024-03-02T04:28:46;29.98;;;15.00;;
70303;SDS011;57712;48.752;11.348;2024-03-02T04:31:14;30.10;;;14.87;;
70303;SDS011;57712;48.752;11.348;2024-03-02T04:33:43;29.05;;;14.60;;
70303;SDS011;57712;48.752;11.348;2024-03-02T04:36:10;30.40;;;15.52;;
70303;SDS011;57712;48.752;11.348;2024-03-02T04:38:37;29.83;;;15.18;;
70303;SDS011;57712;48.752;11.348;2024-03-02T04:41:04;28.20;;;14.57;;
70303;SDS011;57712;48.752;11.348;2024-03-02T04:43:34;31.80;;;16.23;;
70303;SDS011;57712;48.752;11.348;2024-03-02T04:46:01;31.00;;;15.85;;
70303;SDS011;57712;48.752;11.348;2024-03-02T04:48:28;34.38;;;16.70;;
70303;SDS011;57712;48.752;11.348;2024-03-02T04:50:55;30.50;;;15.63;;
70303;SDS011;57712;48.752;11.348;2024-03-02T04:53:22;31.05;;;15.65;;
70303;SDS011;57712;48.752;11.348;2024-03-02T04:55:49;33.03;;;15.23;;
70303;SDS011;57712;48.752;11.348;2024-03-02T04:58:39;33.33;;;16.13;;
70303;SDS011;57712;48.752;11.348;2024-03-02T05:01:05;33.67;;;16.60;;
70303;SDS011;57712;48.752;11.348;2024-03-02T05:03:32;35.35;;;16.55;;
70303;SDS011;57712;48.752;11.348;2024-03-02T05:06:01;38.72;;;17.90;;
70303;SDS011;57712;48.752;11.348;2024-03-02T05:08:28;39.17;;;17.83;;
70303;SDS011;57712;48.752;11.348;2024-03-02T05:10:54;38.72;;;17.98;;
70303;SDS011;57712;48.752;11.348;2024-03-02T05:13:21;38.28;;;17.02;;
70303;SDS011;57712;48.752;11.348;2024-03-02T05:15:48;36.90;;;18.42;;
70303;SDS011;57712;48.752;11.348;2024-03-02T05:18:14;34.97;;;17.73;;
70303;SDS011;57712;48.752;11.348;2024-03-02T05:20:41;31.33;;;16.03;;
70303;SDS011;57712;48.752;11.348;2024-03-02T05:23:08;37.22;;;17.63;;
70303;SDS011;57712;48.752;11.348;2024-03-02T05:25:35;39.85;;;18.10;;
70303;SDS011;57712;48.752;11.348;2024-03-02T05:28:01;35.72;;;17.90;;
70303;SDS011;57712;48.752;11.348;2024-03-02T05:30:28;33.28;;;16.42;;
70303;SDS011;57712;48.752;11.348;2024-03-02T05:32:55;34.40;;;17.03;;
70303;SDS011;57712;48.752;11.348;2024-03-02T05:35:22;33.42;;;17.00;;
70303;SDS011;57712;48.752;11.348;2024-03-02T05:37:48;49.05;;;23.15;;
70303;SDS011;57712;48.752;11.348;2024-03-02T05:40:15;39.80;;;19.75;;
70303;SDS011;57712;48.752;11.348;2024-03-02T05:42:42;35.22;;;17.35;;
70303;SDS011;57712;48.752;11.348;2024-03-02T05:45:08;35.03;;;16.60;;
70303;SDS011;57712;48.752;11.348;2024-03-02T05:47:35;32.13;;;16.08;;
70303;SDS011;57712;48.752;11.348;2024-03-02T05:50:03;32.30;;;15.68;;
70303;SDS011;57712;48.752;11.348;2024-03-02T05:52:30;33.25;;;15.55;;
70303;SDS011;57712;48.752;11.348;2024-03-02T05:54:57;33.70;;;16.23;;
70303;SDS011;57712;48.752;11.348;2024-03-02T05:57:24;33.03;;;16.07;;
70303;SDS011;57712;48.752;11.348;2024-03-02T06:00:15;32.35;;;16.00;;
70303;SDS011;57712;48.752;11.348;2024-03-02T06:02:44;33.80;;;15.82;;
70303;SDS011;57712;48.752;11.348;2024-03-02T06:05:11;33.70;;;16.33;;
70303;SDS011;57712;48.752;11.348;2024-03-02T06:07:39;32.63;;;15.10;;
70303;SDS011;57712;48.752;11.348;2024-03-02T06:10:06;31.40;;;16.30;;
70303;SDS011;57712;48.752;11.348;2024-03-02T06:12:40;32.40;;;16.80;;
70303;SDS011;57712;48.752;11.348;2024-03-02T06:15:07;39.47;;;17.92;;
70303;SDS011;57712;48.752;11.348;2024-03-02T06:17:37;37.70;;;17.05;;
70303;SDS011;57712;48.752;11.348;2024-03-02T06:20:04;36.53;;;17.23;;
70303;SDS011;57712;48.752;11.348;2024-03-02T06:22:32;37.43;;;18.17;;
70303;SDS011;57712;48.752;11.348;2024-03-02T06:24:59;39.97;;;17.92;;
70303;SDS011;57712;48.752;11.348;2024-03-02T06:27:26;51.38;;;20.48;;
70303;SDS011;57712;48.752;11.348;2024-03-02T06:29:52;44.50;;;19.02;;
70303;SDS011;57712;48.752;11.348;2024-03-02T06:32:21;42.88;;;18.88;;
70303;SDS011;57712;48.752;11.348;2024-03-02T06:34:49;52.87;;;19.43;;
70303;SDS011;57712;48.752;11.348;2024-03-02T06:37:16;42.33;;;18.75;;
70303;SDS011;57712;48.752;11.348;2024-03-02T06:39:43;46.50;;;19.40;;
70303;SDS011;57712;48.752;11.348;2024-03-02T06:42:10;51.13;;;18.48;;
70303;SDS011;57712;48.752;11.348;2024-03-02T06:44:37;32.58;;;16.40;;
70303;SDS011;57712;48.752;11.348;2024-03-02T06:47:04;29.80;;;15.13;;
70303;SDS011;57712;48.752;11.348;2024-03-02T06:49:31;26.13;;;14.85;;
70303;SDS011;57712;48.752;11.348;2024-03-02T06:52:00;26.88;;;15.05;;
70303;SDS011;57712;48.752;11.348;2024-03-02T06:54:31;25.58;;;14.30;;
70303;SDS011;57712;48.752;11.348;2024-03-02T06:57:00;26.42;;;14.63;;
70303;SDS011;57712;48.752;11.348;2024-03-02T06:59:39;23.43;;;13.80;;
70303;SDS011;57712;48.752;11.348;2024-03-02T07:02:05;28.02;;;15.70;;
70303;SDS011;57712;48.752;11.348;2024-03-02T07:04:34;29.77;;;16.10;;
70303;SDS011;57712;48.752;11.348;2024-03-02T07:07:01;32.10;;;16.08;;
70303;SDS011;57712;48.752;11.348;2024-03-02T07:09:28;30.27;;;16.23;;
70303;SDS011;57712;48.752;11.348;2024-03-02T07:11:57;28.53;;;14.83;;
70303;SDS011;57712;48.752;11.348;2024-03-02T07:14:24;30.80;;;17.27;;
70303;SDS011;57712;48.752;11.348;2024-03-02T07:17:11;27.95;;;15.60;;
70303;SDS011;57712;48.752;11.348;2024-03-02T07:19:40;28.85;;;15.35;;
70303;SDS011;57712;48.752;11.348;2024-03-02T07:22:09;27.67;;;15.18;;
70303;SDS011;57712;48.752;11.348;2024-03-02T07:24:40;23.97;;;13.53;;
70303;SDS011;57712;48.752;11.348;2024-03-02T07:27:16;28.50;;;14.30;;
70303;SDS011;57712;48.752;11.348;2024-03-02T07:29:49;29.73;;;15.98;;
70303;SDS011;57712;48.752;11.348;2024-03-02T07:32:16;28.65;;;15.27;;
70303;SDS011;57712;48.752;11.348;2024-03-02T07:34:46;31.20;;;15.85;;
70303;SDS011;57712;48.752;11.348;2024-03-02T07:37:13;33.70;;;16.83;;
70303;SDS011;57712;48.752;11.348;2024-03-02T07:39:39;33.42;;;17.95;;
70303;SDS011;57712;48.752;11.348;2024-03-02T07:42:06;32.88;;;17.23;;
70303;SDS011;57712;48.752;11.348;2024-03-02T07:44:34;32.38;;;17.52;;
70303;SDS011;57712;48.752;11.348;2024-03-02T07:47:01;37.97;;;19.40;;
70303;SDS011;57712;48.752;11.348;2024-03-02T07:49:28;36.87;;;18.83;;
70303;SDS011;57712;48.752;11.348;2024-03-02T07:51:56;35.67;;;18.88;;
70303;SDS011;57712;48.752;11.348;2024-03-02T07:54:23;37.65;;;19.02;;
70303;SDS011;57712;48.752;11.348;2024-03-02T07:56:50;34.65;;;18.08;;
70303;SDS011;57712;48.752;11.348;2024-03-02T07:59:17;36.20;;;18.10;;
70303;SDS011;57712;48.752;11.348;2024-03-02T08:01:44;35.10;;;17.60;;
70303;SDS011;57712;48.752;11.348;2024-03-02T08:04:11;36.17;;;19.50;;
70303;SDS011;57712;48.752;11.348;2024-03-02T08:06:38;32.17;;;17.90;;
70303;SDS011;57712;48.752;11.348;2024-03-02T08:09:05;32.15;;;17.38;;
70303;SDS011;57712;48.752;11.348;2024-03-02T08:11:39;30.88;;;16.95;;
70303;SDS011;57712;48.752;11.348;2024-03-02T08:14:05;28.97;;;16.43;;
70303;SDS011;57712;48.752;11.348;2024-03-02T08:16:32;30.73;;;16.30;;
70303;SDS011;57712;48.752;11.348;2024-03-02T08:18:59;27.92;;;16.30;;
70303;SDS011;57712;48.752;11.348;2024-03-02T08:21:27;30.42;;;16.52;;
70303;SDS011;57712;48.752;11.348;2024-03-02T08:23:57;27.52;;;15.82;;
70303;SDS011;57712;48.752;11.348;2024-03-02T08:26:28;31.60;;;17.10;;
70303;SDS011;57712;48.752;11.348;2024-03-02T08:28:58;31.35;;;17.13;;
70303;SDS011;57712;48.752;11.348;2024-03-02T08:31:25;32.95;;;17.17;;
70303;SDS011;57712;48.752;11.348;2024-03-02T08:33:52;30.10;;;17.20;;
70303;SDS011;57712;48.752;11.348;2024-03-02T08:36:19;31.48;;;17.98;;
70303;SDS011;57712;48.752;11.348;2024-03-02T08:38:46;31.93;;;16.70;;
70303;SDS011;57712;48.752;11.348;2024-03-02T08:41:15;31.70;;;17.58;;
70303;SDS011;57712;48.752;11.348;2024-03-02T08:43:42;31.80;;;17.55;;
70303;SDS011;57712;48.752;11.348;2024-03-02T08:46:09;33.20;;;17.77;;
70303;SDS011;57712;48.752;11.348;2024-03-02T08:48:36;32.80;;;17.98;;
70303;SDS011;57712;48.752;11.348;2024-03-02T08:51:03;32.27;;;17.63;;
70303;SDS011;57712;48.752;11.348;2024-03-02T08:53:32;32.20;;;16.95;;
70303;SDS011;57712;48.752;11.348;2024-03-02T08:55:59;31.58;;;18.30;;
70303;SDS011;57712;48.752;11.348;2024-03-02T08:58:28;32.72;;;18.15;;
70303;SDS011;57712;48.752;11.348;2024-03-02T09:00:55;34.05;;;18.35;;
70303;SDS011;57712;48.752;11.348;2024-03-02T09:03:22;33.70;;;18.40;;
70303;SDS011;57712;48.752;11.348;2024-03-02T09:05:48;34.50;;;18.10;;
70303;SDS011;57712;48.752;11.348;2024-03-02T09:08:15;37.22;;;19.45;;
70303;SDS011;57712;48.752;11.348;2024-03-02T09:10:42;33.03;;;18.92;;
70303;SDS011;57712;48.752;11.348;2024-03-02T09:13:10;34.42;;;19.17;;
70303;SDS011;57712;48.752;11.348;2024-03-02T09:15:37;35.67;;;18.90;;
70303;SDS011;57712;48.752;11.348;2024-03-02T09:18:06;31.90;;;16.70;;
70303;SDS011;57712;48.752;11.348;2024-03-02T09:20:33;34.58;;;18.83;;
70303;SDS011;57712;48.752;11.348;2024-03-02T09:23:00;35.58;;;19.15;;
70303;SDS011;57712;48.752;11.348;2024-03-02T09:25:26;36.50;;;19.85;;
70303;SDS011;57712;48.752;11.348;2024-03-02T09:27:53;39.13;;;19.80;;
70303;SDS011;57712;48.752;11.348;2024-03-02T09:30:20;36.67;;;19.40;;
70303;SDS011;57712;48.752;11.348;2024-03-02T09:32:46;34.67;;;18.45;;
70303;SDS011;57712;48.752;11.348;2024-03-02T09:35:15;33.65;;;18.73;;
70303;SDS011;57712;48.752;11.348;2024-03-02T09:37:42;39.55;;;20.98;;
70303;SDS011;57712;48.752;11.348;2024-03-02T09:40:09;34.43;;;18.20;;
70303;SDS011;57712;48.752;11.348;2024-03-02T09:42:36;34.58;;;18.85;;
70303;SDS011;57712;48.752;11.348;2024-03-02T09:45:04;40.03;;;21.13;;
70303;SDS011;57712;48.752;11.348;2024-03-02T09:47:31;45.45;;;22.92;;
70303;SDS011;57712;48.752;11.348;2024-03-02T09:49:58;34.92;;;19.13;;
70303;SDS011;57712;48.752;11.348;2024-03-02T09:52:25;39.73;;;19.50;;
70303;SDS011;57712;48.752;11.348;2024-03-02T09:54:52;34.88;;;19.20;;
70303;SDS011;57712;48.752;11.348;2024-03-02T09:57:19;36.55;;;19.17;;
70303;SDS011;57712;48.752;11.348;2024-03-02T09:59:46;36.05;;;19.67;;
70303;SDS011;57712;48.752;11.348;2024-03-02T10:02:13;36.75;;;19.17;;
70303;SDS011;57712;48.752;11.348;2024-03-02T10:04:50;38.20;;;20.23;;
70303;SDS011;57712;48.752;11.348;2024-03-02T10:07:25;42.22;;;20.20;;
70303;SDS011;57712;48.752;11.348;2024-03-02T10:48:27;32.97;;;17.33;;
70303;SDS011;57712;48.752;11.348;2024-03-02T10:51:18;31.15;;;17.35;;
70303;SDS011;57712;48.752;11.348;2024-03-02T11:00:48;32.20;;;17.08;;
70303;SDS011;57712;48.752;11.348;2024-03-02T11:03:38;28.73;;;15.73;;
70303;SDS011;57712;48.752;11.348;2024-03-02T11:37:14;27.13;;;15.63;;
70303;SDS011;57712;48.752;11.348;2024-03-02T11:40:26;27.73;;;14.02;;
70303;SDS011;57712;48.752;11.348;2024-03-02T11:43:00;25.92;;;14.60;;
70303;SDS011;57712;48.752;11.348;2024-03-02T11:49:15;29.87;;;17.17;;
70303;SDS011;57712;48.752;11.348;2024-03-02T11:52:47;29.98;;;16.02;;
70303;SDS011;57712;48.752;11.348;2024-03-02T11:55:23;28.55;;;16.67;;
70303;SDS011;57712;48.752;11.348;2024-03-02T11:58:14;30.58;;;16.85;;
70303;SDS011;57712;48.752;11.348;2024-03-02T12:01:04;29.63;;;17.58;;
70303;SDS011;57712;48.752;11.348;2024-03-02T12:04:04;30.57;;;17.00;;
70303;SDS011;57712;48.752;11.348;2024-03-02T12:09:34;29.13;;;17.05;;
70303;SDS011;57712;48.752;11.348;2024-03-02T12:12:27;27.15;;;15.35;;
70303;SDS011;57712;48.752;11.348;2024-03-02T12:15:34;27.58;;;15.18;;
70303;SDS011;57712;48.752;11.348;2024-03-02T12:18:03;25.17;;;12.10;;
70303;SDS011;57712;48.752;11.348;2024-03-02T12:20:37;28.23;;;13.95;;
70303;SDS011;57712;48.752;11.348;2024-03-02T12:23:17;29.65;;;17.52;;
70303;SDS011;57712;48.752;11.348;2024-03-02T12:49:44;31.45;;;18.42;;
70303;SDS011;57712;48.752;11.348;2024-03-02T12:56:14;27.13;;;15.70;;
70303;SDS011;57712;48.752;11.348;2024-03-02T12:58:41;26.45;;;14.60;;
70303;SDS011;57712;48.752;11.348;2024-03-02T13:01:08;25.67;;;14.73;;
70303;SDS011;57712;48.752;11.348;2024-03-02T13:03:36;28.30;;;14.82;;
70303;SDS011;57712;48.752;11.348;2024-03-02T13:06:05;24.50;;;14.27;;
70303;SDS011;57712;48.752;11.348;2024-03-02T13:08:33;25.58;;;13.82;;
70303;SDS011;57712;48.752;11.348;2024-03-02T13:10:59;26.50;;;15.57;;
70303;SDS011;57712;48.752;11.348;2024-03-02T13:13:26;23.90;;;13.73;;
70303;SDS011;57712;48.752;11.348;2024-03-02T13:15:57;24.17;;;13.68;;
70303;SDS011;57712;48.752;11.348;2024-03-02T13:18:24;24.83;;;14.15;;
70303;SDS011;57712;48.752;11.348;2024-03-02T13:20:51;25.52;;;14.95;;
70303;SDS011;57712;48.752;11.348;2024-03-02T13:23:18;24.83;;;14.73;;
70303;SDS011;57712;48.752;11.348;2024-03-02T13:25:46;24.80;;;14.30;;
70303;SDS011;57712;48.752;11.348;2024-03-02T13:28:13;24.60;;;14.40;;
70303;SDS011;57712;48.752;11.348;2024-03-02T13:30:40;25.05;;;13.80;;
70303;SDS011;57712;48.752;11.348;2024-03-02T13:33:07;25.48;;;15.02;;
70303;SDS011;57712;48.752;11.348;2024-03-02T13:35:34;25.63;;;15.63;;
70303;SDS011;57712;48.752;11.348;2024-03-02T13:38:00;28.57;;;16.70;;
70303;SDS011;57712;48.752;11.348;2024-03-02T13:40:27;26.67;;;16.00;;
70303;SDS011;57712;48.752;11.348;2024-03-02T13:42:55;25.70;;;15.93;;
70303;SDS011;57712;48.752;11.348;2024-03-02T13:45:22;28.35;;;16.55;;
70303;SDS011;57712;48.752;11.348;2024-03-02T13:47:49;25.50;;;15.07;;
70303;SDS011;57712;48.752;11.348;2024-03-02T13:50:16;26.67;;;15.90;;
70303;SDS011;57712;48.752;11.348;2024-03-02T13:52:42;36.20;;;19.88;;
70303;SDS011;57712;48.752;11.348;2024-03-02T13:55:09;26.58;;;16.15;;
70303;SDS011;57712;48.752;11.348;2024-03-02T13:57:36;25.48;;;14.48;;
70303;SDS011;57712;48.752;11.348;2024-03-02T14:03:08;24.60;;;14.17;;
70303;SDS011;57712;48.752;11.348;2024-03-02T14:06:10;26.20;;;15.20;;
70303;SDS011;57712;48.752;11.348;2024-03-02T14:12:53;22.17;;;13.10;;
70303;SDS011;57712;48.752;11.348;2024-03-02T14:16:03;17.55;;;9.73;;
70303;SDS011;57712;48.752;11.348;2024-03-02T14:19:19;16.43;;;9.97;;
70303;SDS011;57712;48.752;11.348;2024-03-02T14:21:55;18.33;;;10.63;;
70303;SDS011;57712;48.752;11.348;2024-03-02T14:24:30;21.48;;;11.48;;
70303;SDS011;57712;48.752;11.348;2024-03-02T14:27:11;16.52;;;9.07;;
70303;SDS011;57712;48.752;11.348;2024-03-02T14:30:03;22.67;;;13.15;;
70303;SDS011;57712;48.752;11.348;2024-03-02T14:32:59;19.03;;;10.83;;
70303;SDS011;57712;48.752;11.348;2024-03-02T14:36:01;21.88;;;11.93;;
70303;SDS011;57712;48.752;11.348;2024-03-02T14:39:01;25.25;;;14.02;;
70303;SDS011;57712;48.752;11.348;2024-03-02T14:41:58;24.60;;;13.60;;
70303;SDS011;57712;48.752;11.348;2024-03-02T14:44:42;25.77;;;13.68;;
70303;SDS011;57712;48.752;11.348;2024-03-02T14:47:16;27.00;;;14.57;;
70303;SDS011;57712;48.752;11.348;2024-03-02T14:49:43;25.40;;;14.68;;
70303;SDS011;57712;48.752;11.348;2024-03-02T14:52:16;25.75;;;14.85;;
70303;SDS011;57712;48.752;11.348;2024-03-02T14:54:52;26.85;;;14.27;;
70303;SDS011;57712;48.752;11.348;2024-03-02T14:57:36;28.42;;;14.63;;
70303;SDS011;57712;48.752;11.348;2024-03-02T15:00:38;26.03;;;14.10;;
70303;SDS011;57712;48.752;11.348;2024-03-02T15:03:28;26.15;;;14.00;;
70303;SDS011;57712;48.752;11.348;2024-03-02T15:06:35;27.45;;;14.18;;
70303;SDS011;57712;48.752;11.348;2024-03-02T15:09:52;27.40;;;14.82;;
70303;SDS011;57712;48.752;11.348;2024-03-02T15:12:26;27.17;;;14.90;;
70303;SDS011;57712;48.752;11.348;2024-03-02T15:14:57;28.70;;;15.73;;
70303;SDS011;57712;48.752;11.348;2024-03-02T15:17:36;26.35;;;14.65;;
70303;SDS011;57712;48.752;11.348;2024-03-02T15:20:12;29.63;;;15.25;;
70303;SDS011;57712;48.752;11.348;2024-03-02T15:23:06;27.45;;;15.30;;
70303;SDS011;57712;48.752;11.348;2024-03-02T15:26:12;27.10;;;14.75;;
70303;SDS011;57712;48.752;11.348;2024-03-02T15:28:44;29.10;;;16.90;;
70303;SDS011;57712;48.752;11.348;2024-03-02T15:31:17;33.33;;;16.83;;
70303;SDS011;57712;48.752;11.348;2024-03-02T15:33:50;29.85;;;16.17;;
70303;SDS011;57712;48.752;11.348;2024-03-02T15:36:46;32.42;;;17.05;;
70303;SDS011;57712;48.752;11.348;2024-03-02T15:39:17;32.08;;;16.73;;
70303;SDS011;57712;48.752;11.348;2024-03-02T15:41:48;31.30;;;16.53;;
70303;SDS011;57712;48.752;11.348;2024-03-02T15:44:21;31.75;;;17.00;;
70303;SDS011;57712;48.752;11.348;2024-03-02T15:47:13;33.72;;;18.25;;
70303;SDS011;57712;48.752;11.348;2024-03-02T15:49:53;35.55;;;16.42;;
70303;SDS011;57712;48.752;11.348;2024-03-02T15:52:23;33.80;;;16.63;;
70303;SDS011;57712;48.752;11.348;2024-03-02T15:55:01;33.23;;;16.23;;
70303;SDS011;57712;48.752;11.348;2024-03-02T15:57:40;31.95;;;16.17;;
70303;SDS011;57712;48.752;11.348;2024-03-02T16:00:07;30.67;;;16.30;;
70303;SDS011;57712;48.752;11.348;2024-03-02T16:02:34;32.45;;;16.85;;
70303;SDS011;57712;48.752;11.348;2024-03-02T16:05:01;29.38;;;14.85;;
70303;SDS011;57712;48.752;11.348;2024-03-02T16:07:28;32.67;;;15.63;;
70303;SDS011;57712;48.752;11.348;2024-03-02T16:09:54;32.40;;;15.70;;
70303;SDS011;57712;48.752;11.348;2024-03-02T16:12:21;30.73;;;15.57;;
70303;SDS011;57712;48.752;11.348;2024-03-02T16:14:48;32.00;;;16.10;;
70303;SDS011;57712;48.752;11.348;2024-03-02T16:17:15;31.63;;;14.73;;
70303;SDS011;57712;48.752;11.348;2024-03-02T16:19:42;31.23;;;15.17;;
70303;SDS011;57712;48.752;11.348;2024-03-02T16:22:09;31.45;;;14.98;;
70303;SDS011;57712;48.752;11.348;2024-03-02T16:24:39;28.00;;;14.27;;
70303;SDS011;57712;48.752;11.348;2024-03-02T16:27:05;32.35;;;16.08;;
70303;SDS011;57712;48.752;11.348;2024-03-02T16:29:32;31.85;;;15.85;;
70303;SDS011;57712;48.752;11.348;2024-03-02T16:31:59;32.63;;;16.33;;
70303;SDS011;57712;48.752;11.348;2024-03-02T16:34:27;30.73;;;15.20;;